Time;durP1;ratioP1;P1;durP2;ratioP2;P2;SDS_P1;SDS_P2;PMS_P1;PMS_P2;Temp;Humidity;BMP_temperature;BMP_pressure;BME280_temperature;BME280_humidity;BME280_pressure;Samples;Min_cycle;Max_cycle;Signal;HPM_P1;HPM_P2
2023/09/06 00:04:48;;;;;;;1.88;1.10;;;16.20;94.00;;;15.06;86.19;100852.50;10312034;28;96565;-89
2023/09/06 00:09:53;;;;;;;2.03;1.00;;;16.20;94.10;;;15.02;86.55;100846.66;10296669;28;97013;-89
2023/09/06 00:14:57;;;;;;;1.75;0.95;;;16.20;94.20;;;15.03;86.92;100853.69;10331155;28;97372;-89
2023/09/06 00:20:01;;;;;;;2.58;1.15;;;16.20;94.40;;;14.96;87.10;100845.53;10312185;28;98687;-89
2023/09/06 00:25:07;;;;;;;1.25;0.93;;;16.10;94.40;;;14.90;87.20;100845.44;10330999;28;96659;-89
2023/09/06 00:30:12;;;;;;;1.83;1.00;;;16.00;94.50;;;14.83;87.54;100839.16;10314383;28;96672;-89
2023/09/06 00:35:16;;;;;;;1.05;0.70;;;16.00;94.70;;;14.82;87.84;100853.53;10311476;28;97684;-89
2023/09/06 00:40:22;;;;;;;1.70;1.00;;;15.90;94.70;;;14.71;87.62;100841.41;10297588;28;96708;-88
2023/09/06 00:45:47;;;;;;;2.45;1.00;;;15.80;94.90;;;14.65;88.13;100848.31;10298570;28;96585;-89
2023/09/06 00:50:56;;;;;;;1.30;0.80;;;15.80;95.10;;;14.58;88.27;100849.19;10296714;28;96960;-90
2023/09/06 00:56:03;;;;;;;1.55;0.80;;;15.70;95.20;;;14.48;88.48;100841.41;10312695;28;96607;-89
2023/09/06 01:01:08;;;;;;;2.05;0.90;;;15.60;95.30;;;14.48;89.18;100846.75;10314504;28;97375;-89
2023/09/06 01:06:27;;;;;;;1.55;0.90;;;15.60;95.70;;;14.40;89.47;100844.09;10297493;28;97244;-88
2023/09/06 01:11:37;;;;;;;1.53;1.07;;;15.60;95.90;;;14.34;89.67;100836.78;10322307;28;96610;-89
2023/09/06 01:16:48;;;;;;;2.30;1.40;;;15.50;96.00;;;14.33;89.67;100843.13;10321850;28;96944;-89
2023/09/06 01:22:10;;;;;;;2.10;0.98;;;15.50;96.00;;;14.33;89.76;100860.00;10293905;28;96790;-89
2023/09/06 01:27:15;;;;;;;1.77;1.10;;;15.50;96.10;;;14.30;89.98;100860.38;10319782;28;97712;-88
2023/09/06 01:32:19;;;;;;;2.08;0.95;;;15.50;96.30;;;14.28;89.82;100864.25;10286414;28;96568;-88
2023/09/06 01:37:23;;;;;;;0.80;0.70;;;15.50;96.30;;;14.24;90.15;100860.25;10283681;28;97393;-89
2023/09/06 01:42:27;;;;;;;1.23;0.88;;;15.40;96.50;;;14.16;90.31;100859.28;10318667;28;97729;-88
2023/09/06 01:47:31;;;;;;;1.10;0.70;;;15.30;96.60;;;14.10;90.24;100859.97;10317324;28;96892;-89
2023/09/06 01:52:36;;;;;;;2.03;1.10;;;15.30;96.80;;;14.03;90.72;100863.50;10299463;28;97530;-89
2023/09/06 01:57:40;;;;;;;1.70;1.15;;;15.20;97.00;;;13.92;91.85;100854.88;10319289;28;97797;-89
2023/09/06 02:02:44;;;;;;;2.10;1.20;;;15.10;97.90;;;13.94;92.38;100857.38;10282556;28;96549;-89
2023/09/06 02:07:48;;;;;;;1.47;0.70;;;15.10;98.10;;;13.95;92.21;100856.38;10315163;28;97216;-89
2023/09/06 02:12:51;;;;;;;3.17;0.93;;;15.10;98.20;;;13.99;91.90;100868.38;10281112;28;96587;-89
2023/09/06 02:17:56;;;;;;;1.77;1.02;;;15.10;98.00;;;13.99;91.62;100865.72;10298004;28;98558;-88
2023/09/06 02:22:59;;;;;;;2.33;0.98;;;15.10;97.90;;;13.98;91.08;100856.03;10316078;28;96723;-88
2023/09/06 02:28:04;;;;;;;3.72;1.20;;;15.10;97.90;;;13.93;90.95;100859.22;10314799;28;97035;-89
2023/09/06 02:33:11;;;;;;;2.10;1.13;;;15.10;97.90;;;13.92;90.71;100857.56;10316316;28;96695;-89
2023/09/06 02:38:16;;;;;;;1.00;0.70;;;15.10;97.90;;;13.86;90.58;100858.25;10332502;28;98414;-89
2023/09/06 02:43:19;;;;;;;2.50;0.73;;;15.00;97.90;;;13.83;90.47;100861.25;10307787;28;96610;-87
2023/09/06 02:48:23;;;;;;;1.30;0.80;;;15.00;97.90;;;13.79;90.44;100854.59;10355735;28;98434;-89
2023/09/06 02:53:31;;;;;;;2.15;1.05;;;15.00;98.00;;;13.70;90.52;100846.78;10316803;28;96641;-87
2023/09/06 02:58:37;;;;;;;1.20;0.80;;;14.90;98.10;;;13.64;90.81;100854.47;10343982;28;96499;-87
2023/09/06 03:03:42;;;;;;;1.50;1.00;;;14.80;98.20;;;13.53;91.38;100854.84;10329481;28;96616;-88
2023/09/06 03:08:46;;;;;;;1.77;1.07;;;14.70;98.40;;;13.42;91.48;100849.03;10315872;28;96664;-88
2023/09/06 03:13:55;;;;;;;1.17;0.77;;;14.60;98.50;;;13.35;91.94;100855.03;10314781;28;96647;-88
2023/09/06 03:18:59;;;;;;;1.23;0.70;;;14.50;98.80;;;13.21;92.12;100849.59;10290137;28;96767;-88
2023/09/06 03:24:11;;;;;;;2.37;1.20;;;14.40;98.90;;;13.15;93.27;100859.06;10316134;28;98157;-88
2023/09/06 03:29:17;;;;;;;6.00;2.70;;;14.30;99.10;;;13.17;93.93;100853.56;10316416;28;96480;-88
2023/09/06 03:34:22;;;;;;;2.30;1.13;;;14.30;99.30;;;13.15;93.84;100855.56;10282152;28;96612;-88
2023/09/06 03:39:28;;;;;;;1.27;0.80;;;14.30;99.40;;;13.13;94.45;100856.56;10313566;28;97495;-88
2023/09/06 03:44:33;;;;;;;1.47;0.97;;;14.20;99.60;;;13.15;94.32;100860.91;10301606;28;97845;-88
2023/09/06 03:49:36;;;;;;;1.70;0.87;;;14.30;99.60;;;13.09;94.08;100857.91;10274911;28;96703;-88
2023/09/06 03:54:40;;;;;;;2.60;1.10;;;14.30;99.70;;;13.08;94.21;100858.91;10297979;28;96653;-88
2023/09/06 03:59:44;;;;;;;1.07;0.77;;;14.30;99.80;;;13.08;94.13;100864.25;10299514;28;96571;-88
2023/09/06 04:04:48;;;;;;;1.33;0.90;;;14.30;99.80;;;13.06;94.08;100863.56;10313553;28;97686;-89
2023/09/06 04:09:56;;;;;;;1.87;1.20;;;14.20;99.80;;;13.02;93.86;100864.91;10290369;28;97854;-88
2023/09/06 04:15:00;;;;;;;1.93;1.10;;;14.20;99.90;;;12.97;94.22;100877.91;10299211;28;97226;-89
2023/09/06 04:20:18;;;;;;;1.43;0.97;;;14.10;99.90;;;12.91;94.15;100875.91;10305776;28;97559;-88
2023/09/06 04:25:22;;;;;;;1.63;1.10;;;14.10;99.90;;;12.89;94.38;100885.91;10282140;28;96821;-89
2023/09/06 04:30:28;;;;;;;1.97;0.90;;;14.10;99.90;;;12.91;94.68;100894.59;10297954;28;98129;-89
2023/09/06 04:35:43;;;;;;;1.10;0.70;;;14.10;99.90;;;12.96;95.00;100886.91;10312446;28;97539;-88
2023/09/06 04:40:48;;;;;;;1.77;1.00;;;14.20;99.90;;;13.01;94.87;100879.22;10269560;28;96634;-88
2023/09/06 04:45:54;;;;;;;2.33;0.77;;;14.20;99.90;;;13.10;95.10;100888.91;10307944;28;97498;-86
2023/09/06 04:50:59;;;;;;;2.07;1.07;;;14.30;99.90;;;13.21;95.18;100889.63;10316532;28;97831;-86
2023/09/06 04:56:06;;;;;;;2.23;1.00;;;14.40;99.90;;;13.34;95.35;100900.59;10305231;28;96608;-86
2023/09/06 05:01:10;;;;;;;1.93;0.80;;;14.50;99.90;;;13.45;95.23;100904.78;10289699;28;96847;-86
2023/09/06 05:06:14;;;;;;;2.37;1.00;;;14.60;99.90;;;13.60;95.30;100916.41;10316014;28;98372;-86
2023/09/06 05:11:18;;;;;;;1.67;1.07;;;14.70;99.90;;;13.72;95.34;100909.69;10313085;28;96690;-86
2023/09/06 05:16:22;;;;;;;2.03;0.83;;;14.90;99.90;;;13.90;95.09;100914.81;10300929;28;98226;-86
2023/09/06 05:21:25;;;;;;;3.05;1.35;;;15.00;99.90;;;13.95;94.76;100907.13;10319526;28;96618;-87
2023/09/06 05:26:30;;;;;;;2.95;1.85;;;15.20;99.90;;;14.17;94.88;100916.25;10308616;28;98490;-87
2023/09/06 05:31:34;;;;;;;5.68;3.00;;;15.30;99.90;;;14.33;94.73;100917.97;10328324;28;98151;-87
2023/09/06 05:36:38;;;;;;;6.05;2.88;;;15.50;99.90;;;14.53;94.54;100905.06;10314047;28;97668;-87
2023/09/06 05:41:42;;;;;;;3.03;1.75;;;15.80;99.90;;;14.74;94.17;100902.56;10335019;28;96468;-87
2023/09/06 05:46:47;;;;;;;6.05;2.58;;;15.90;99.90;;;14.92;92.85;100908.44;10308854;28;96774;-88
2023/09/06 05:51:51;;;;;;;3.95;2.35;;;16.10;99.90;;;15.04;92.06;100900.00;10279780;28;96577;-88
2023/09/06 05:56:54;;;;;;;3.35;2.08;;;16.20;99.90;;;15.21;91.76;100909.56;10312238;28;99195;-88
2023/09/06 06:01:58;;;;;;;3.30;1.75;;;16.40;99.70;;;15.42;91.22;100919.59;10317653;28;97432;-88
2023/09/06 06:07:02;;;;;;;2.47;1.45;;;16.60;99.60;;;15.60;90.46;100913.91;10243363;28;1285281;-88
2023/09/06 06:12:06;;;;;;;2.58;1.10;;;16.80;99.30;;;15.79;88.99;100911.53;10313144;28;97483;-88
2023/09/06 06:17:09;;;;;;;1.35;0.70;;;16.90;99.20;;;16.02;88.58;100921.34;10301046;28;96680;-88
2023/09/06 06:22:13;;;;;;;1.77;0.93;;;17.20;99.00;;;16.28;87.82;100921.66;10303500;28;97765;-88
2023/09/06 06:27:18;;;;;;;1.33;0.70;;;17.40;98.80;;;16.52;87.10;100917.00;10351619;28;96509;-88
2023/09/06 06:32:22;;;;;;;0.93;0.70;;;17.70;98.50;;;16.77;86.32;100912.97;10291874;28;97060;-88
2023/09/06 06:37:26;;;;;;;0.70;0.52;;;17.90;98.20;;;17.03;84.40;100917.78;10299778;28;97091;-88
2023/09/06 06:42:33;;;;;;;1.98;0.80;;;18.20;97.80;;;17.22;83.25;100913.59;10300921;28;96481;-88
2023/09/06 06:47:37;;;;;;;1.13;0.73;;;18.50;97.50;;;17.60;83.42;100924.00;10291030;28;96710;-88
2023/09/06 06:52:44;;;;;;;2.40;0.90;;;18.70;97.40;;;17.84;83.26;100923.56;10290671;28;98738;-88
2023/09/06 06:57:48;;;;;;;1.02;0.77;;;19.00;97.20;;;18.15;83.03;100923.09;10278422;28;97112;-88
2023/09/06 07:02:52;;;;;;;1.40;0.90;;;19.30;97.00;;;18.40;81.72;100917.22;10296863;28;96634;-88
2023/09/06 07:07:56;;;;;;;1.10;0.70;;;19.60;96.70;;;18.68;80.99;100922.50;10280469;28;96703;-89
2023/09/06 07:13:00;;;;;;;1.73;0.93;;;19.80;96.40;;;18.99;80.04;100920.06;10321463;28;96643;-89
2023/09/06 07:18:08;;;;;;;0.95;0.63;;;20.20;96.10;;;19.28;78.25;100922.59;10297045;28;97126;-89
2023/09/06 07:23:12;;;;;;;0.82;0.60;;;20.40;95.70;;;19.56;77.35;100911.59;10298228;28;96633;-88
2023/09/06 07:28:16;;;;;;;1.58;0.68;;;20.70;95.40;;;19.82;75.17;100914.25;10299157;28;96612;-90
2023/09/06 07:33:20;;;;;;;1.15;0.50;;;21.00;94.80;;;20.02;71.96;100901.53;10296846;28;97620;-90
2023/09/06 07:38:24;;;;;;;1.38;0.70;;;21.30;94.20;;;20.35;70.27;100905.97;10291881;28;96822;-90
2023/09/06 07:43:29;;;;;;;0.68;0.47;;;21.50;93.60;;;20.63;65.69;100923.72;10295764;28;97096;-90
2023/09/06 07:48:35;;;;;;;1.63;0.60;;;21.80;92.30;;;20.84;62.75;100926.09;10312594;28;96918;-90
2023/09/06 07:53:41;;;;;;;4.00;1.92;;;22.10;91.60;;;21.09;62.56;100918.00;10314575;28;96894;-90
2023/09/06 07:58:45;;;;;;;1.30;0.70;;;22.30;91.00;;;21.34;61.06;100918.03;10273548;28;96797;-91
2023/09/06 08:03:49;;;;;;;1.17;0.60;;;22.50;90.50;;;21.60;58.67;100917.81;10313326;28;96581;-90
2023/09/06 08:08:52;;;;;;;0.82;0.47;;;22.70;89.20;;;21.75;57.43;100916.63;10236631;28;99203;-90
2023/09/06 08:13:56;;;;;;;0.60;0.40;;;23.00;87.60;;;21.99;56.56;100915.72;10233874;28;96743;-90
2023/09/06 08:19:00;;;;;;;1.35;0.70;;;23.20;85.70;;;22.27;56.28;100909.00;10254070;28;96646;-91
2023/09/06 08:24:04;;;;;;;1.15;0.60;;;23.40;85.10;;;22.45;55.87;100911.66;10251349;28;96973;-90
2023/09/06 08:29:09;;;;;;;1.60;0.50;;;23.70;84.10;;;22.70;56.52;100909.63;10250732;28;98802;-90
2023/09/06 08:34:13;;;;;;;2.03;0.85;;;23.90;84.10;;;22.95;56.90;100905.97;10238215;28;97079;-89
2023/09/06 08:39:16;;;;;;;1.95;0.63;;;24.10;83.90;;;23.09;53.51;100895.72;10255498;28;96633;-90
2023/09/06 08:44:24;;;;;;;1.13;0.60;;;24.30;81.80;;;23.15;52.19;100898.34;10229339;28;97417;-89
2023/09/06 08:49:28;;;;;;;1.15;0.47;;;24.40;80.00;;;23.26;52.43;100890.44;10235117;28;98863;-89
2023/09/06 08:54:33;;;;;;;0.82;0.60;;;24.50;79.10;;;23.49;51.72;100901.31;10237434;28;96600;-89
2023/09/06 08:59:38;;;;;;;0.75;0.52;;;24.70;78.90;;;23.65;50.99;100897.09;10236756;28;97202;-89
2023/09/06 09:04:42;;;;;;;0.93;0.50;;;24.90;78.40;;;23.86;51.27;100895.63;10222610;28;98039;-89
2023/09/06 09:10:03;;;;;;;1.40;0.50;;;25.10;77.40;;;24.10;51.75;100891.81;10278876;28;96826;-88
2023/09/06 09:15:08;;;;;;;1.25;0.70;;;25.30;77.60;;;24.29;49.88;100885.16;10271919;28;96736;-89
2023/09/06 09:20:27;;;;;;;1.33;0.70;;;25.50;76.60;;;24.69;48.94;100891.59;10264362;28;96917;-89
2023/09/06 09:25:33;;;;;;;1.10;0.60;;;25.80;75.70;;;24.93;45.86;100886.88;10287303;28;98376;-88
2023/09/06 09:30:38;;;;;;;1.30;0.40;;;26.10;72.70;;;25.17;43.80;100880.22;10282392;28;96736;-88
2023/09/06 09:35:43;;;;;;;0.60;0.38;;;26.30;71.00;;;25.23;43.84;100881.94;10279161;28;96772;-89
2023/09/06 09:41:05;;;;;;;1.00;0.40;;;26.40;70.50;;;25.31;43.08;100859.78;10290258;28;96774;-88
2023/09/06 09:46:09;;;;;;;0.88;0.52;;;26.60;69.30;;;25.40;41.93;100859.34;10272356;28;96913;-88
2023/09/06 09:51:16;;;;;;;1.05;0.57;;;26.70;68.30;;;25.58;43.57;100845.47;10279141;28;96975;-88
2023/09/06 09:56:22;;;;;;;1.00;0.70;;;26.80;68.70;;;25.83;43.02;100845.00;10283035;28;96860;-88
2023/09/06 10:01:28;;;;;;;1.85;0.70;;;27.00;68.30;;;26.11;42.13;100849.44;10304016;28;96769;-89
2023/09/06 10:06:32;;;;;;;1.33;0.52;;;27.20;67.70;;;26.20;40.84;100853.31;10279023;28;96590;-88
2023/09/06 10:11:37;;;;;;;0.85;0.40;;;27.40;66.30;;;26.14;39.92;100852.44;10302609;28;96621;-89
2023/09/06 10:16:41;;;;;;;3.47;0.90;;;27.40;63.80;;;26.20;40.80;100847.88;10306652;28;96889;-90
2023/09/06 10:21:46;;;;;;;1.10;0.50;;;27.50;64.50;;;26.47;41.31;100833.50;10309472;28;98353;-89
2023/09/06 10:26:54;;;;;;;0.85;0.68;;;27.60;64.30;;;26.55;40.38;100836.56;10328519;28;97645;-88
2023/09/06 10:32:04;;;;;;;0.75;0.50;;;27.70;64.00;;;26.71;40.51;100823.91;10309597;28;98015;-89
2023/09/06 10:37:08;;;;;;;0.50;0.40;;;27.90;64.10;;;26.85;39.40;100827.81;10311682;28;98941;-88
2023/09/06 10:42:11;;;;;;;0.93;0.73;;;28.00;62.50;;;26.98;39.32;100825.72;10295567;28;96729;-88
2023/09/06 10:47:27;;;;;;;0.50;0.50;;;28.00;63.00;;;27.18;40.36;100817.75;10329499;28;97625;-89
2023/09/06 10:52:44;;;;;;;0.95;0.65;;;28.20;63.40;;;27.27;40.01;100810.69;10305455;28;96837;-88
2023/09/06 10:57:54;;;;;;;1.23;0.65;;;28.40;63.10;;;27.37;39.12;100820.84;10309068;28;97124;-88
2023/09/06 11:03:07;;;;;;;1.00;0.45;;;28.50;62.50;;;27.44;39.56;100816.78;10294850;28;98530;-88
2023/09/06 11:08:29;;;;;;;1.27;0.55;;;28.60;60.80;;;27.57;39.29;100798.28;10313988;28;96627;-88
2023/09/06 11:13:35;;;;;;;1.13;0.63;;;28.80;61.70;;;27.67;37.78;100803.81;10299413;28;96600;-89
2023/09/06 11:18:47;;;;;;;2.58;0.60;;;28.90;61.40;;;27.65;37.49;100784.97;10288976;28;96707;-89
2023/09/06 11:23:54;;;;;;;0.70;0.43;;;28.90;60.20;;;27.75;36.94;100800.56;10295450;28;96509;-89
2023/09/06 11:29:04;;;;;;;1.00;0.70;;;29.00;59.90;;;27.94;37.22;100793.53;10299341;28;96681;-89
2023/09/06 11:34:11;;;;;;;0.90;0.50;;;29.10;59.20;;;28.11;37.49;100781.56;10300238;28;96742;-89
2023/09/06 11:39:28;;;;;;;0.88;0.45;;;29.30;59.20;;;28.35;35.35;100779.16;10296854;28;96547;-90
2023/09/06 11:44:33;;;;;;;1.00;0.50;;;29.40;57.40;;;28.39;35.42;100775.63;10313291;28;96628;-89
2023/09/06 11:49:40;;;;;;;0.88;0.50;;;29.60;58.10;;;28.50;35.35;100769.06;10297580;28;96644;-89
2023/09/06 11:54:50;;;;;;;0.77;0.50;;;29.80;58.10;;;28.60;34.37;100751.00;10315552;28;96577;-89
2023/09/06 11:59:58;;;;;;;1.33;0.75;;;29.90;56.90;;;28.55;34.79;100743.66;10280442;28;97688;-89
2023/09/06 12:05:04;;;;;;;1.02;0.45;;;30.00;56.70;;;28.73;33.00;100745.81;10314189;28;96544;-87
2023/09/06 12:10:08;;;;;;;0.43;0.30;;;30.10;56.20;;;28.98;32.73;100742.25;10311066;28;96936;-88
2023/09/06 12:15:20;;;;;;;1.15;0.40;;;30.30;54.60;;;29.20;33.78;100730.13;10293711;28;98461;-88
2023/09/06 12:20:24;;;;;;;0.80;0.45;;;30.30;55.70;;;29.14;32.70;100725.78;10312681;28;97110;-88
2023/09/06 12:25:28;;;;;;;0.70;0.50;;;30.30;54.30;;;29.19;31.97;100723.84;10305328;28;96560;-87
2023/09/06 12:30:32;;;;;;;0.60;0.43;;;30.30;53.90;;;28.97;32.09;100720.66;10310387;28;96682;-87
2023/09/06 12:35:38;;;;;;;1.00;0.70;;;30.10;54.10;;;28.56;31.82;100723.41;10314617;28;96614;-89
2023/09/06 12:40:42;;;;;;;0.90;0.68;;;29.70;53.30;;;28.30;32.52;100719.81;10299104;28;98595;-88
2023/09/06 12:45:47;;;;;;;0.65;0.40;;;29.50;53.50;;;28.18;32.53;100719.28;10285311;28;97018;-88
2023/09/06 12:50:51;;;;;;;1.17;0.57;;;29.40;53.60;;;28.11;32.11;100713.25;10274027;28;96571;-88
2023/09/06 12:55:59;;;;;;;1.23;0.60;;;29.40;53.40;;;27.99;32.13;100703.41;10315362;28;97361;-87
2023/09/06 13:01:03;;;;;;;1.98;0.80;;;29.30;52.90;;;27.93;32.36;100703.69;10353644;28;96586;-87
2023/09/06 13:06:08;;;;;;;0.77;0.50;;;29.10;52.50;;;27.84;33.00;100684.28;10331783;28;96947;-87
2023/09/06 13:11:12;;;;;;;1.13;0.70;;;29.00;52.70;;;27.80;33.88;100687.81;10321281;28;96662;-87
2023/09/06 13:16:16;;;;;;;1.65;0.82;;;28.90;53.40;;;27.73;33.12;100690.81;10320870;28;96648;-88
2023/09/06 13:21:21;;;;;;;1.60;0.50;;;28.80;53.40;;;27.63;33.23;100685.28;10303807;28;96532;-88
2023/09/06 13:26:26;;;;;;;0.80;0.50;;;28.70;53.20;;;27.61;32.86;100687.47;10300315;28;98632;-88
2023/09/06 13:31:29;;;;;;;0.70;0.52;;;28.60;52.60;;;27.61;33.65;100671.91;10314263;28;98088;-89
2023/09/06 13:36:36;;;;;;;1.08;0.47;;;28.50;53.40;;;27.62;32.77;100680.91;10302224;28;96820;-89
2023/09/06 13:41:41;;;;;;;1.02;0.50;;;28.50;52.90;;;27.47;32.99;100663.44;10289413;28;97939;-89
2023/09/06 13:46:47;;;;;;;1.05;0.60;;;28.50;53.20;;;27.63;33.57;100660.72;10314773;28;96682;-88
2023/09/06 13:51:53;;;;;;;1.37;0.77;;;28.60;53.50;;;27.86;33.99;100649.31;10303195;28;96758;-89
2023/09/06 13:56:57;;;;;;;0.98;0.50;;;28.90;53.70;;;27.92;33.13;100659.16;10301952;28;96540;-90
2023/09/06 14:02:03;;;;;;;1.27;0.57;;;29.10;53.00;;;27.93;33.72;100655.34;10299195;28;96676;-90
2023/09/06 14:07:07;;;;;;;1.10;0.63;;;29.10;53.30;;;27.86;33.56;100651.22;10303062;28;96579;-90
2023/09/06 14:12:11;;;;;;;0.70;0.40;;;29.00;53.10;;;27.76;33.33;100652.03;10311850;28;96686;-90
2023/09/06 14:17:14;;;;;;;1.88;0.60;;;28.90;53.20;;;27.66;34.00;100649.28;10301037;28;98045;-92
2023/09/06 14:22:19;;;;;;;0.88;0.50;;;28.80;53.00;;;27.59;33.70;100648.69;10316327;28;96683;-91
2023/09/06 14:27:23;;;;;;;0.75;0.45;;;28.70;53.20;;;27.44;33.83;100635.84;10295411;28;96720;-92
2023/09/06 14:32:27;;;;;;;0.90;0.60;;;28.50;52.90;;;27.45;33.93;100626.56;10296891;28;97250;-90
2023/09/06 14:37:31;;;;;;;1.13;0.50;;;28.50;53.20;;;27.59;33.83;100618.66;10295997;28;96803;-90
2023/09/06 14:42:34;;;;;;;1.15;0.70;;;28.80;53.20;;;28.16;33.93;100617.63;10304603;28;97604;-91
2023/09/06 14:47:38;;;;;;;1.40;0.73;;;29.70;53.60;;;28.66;33.37;100621.41;10315524;28;96937;-92
2023/09/06 14:52:41;;;;;;;0.95;0.60;;;30.20;53.10;;;28.88;32.70;100627.34;10295862;28;98314;-91
2023/09/06 14:57:45;;;;;;;1.40;0.65;;;30.40;52.50;;;29.25;32.10;100616.00;10291086;28;96690;-91
2023/09/06 15:02:50;;;;;;;0.50;0.40;;;31.00;52.50;;;29.81;32.06;100612.94;10276153;28;97055;-91
2023/09/06 15:07:55;;;;;;;1.40;0.60;;;31.70;52.20;;;30.51;30.70;100612.56;10309731;28;98781;-90
2023/09/06 15:13:00;;;;;;;0.55;0.40;;;32.60;52.10;;;31.09;30.42;100608.91;10315163;28;98104;-90
2023/09/06 15:18:04;;;;;;;0.68;0.40;;;33.30;51.70;;;31.70;28.29;100614.34;10260224;28;96403;-91
2023/09/06 15:23:08;;;;;;;0.75;0.60;;;34.00;50.70;;;32.29;28.79;100602.94;10332229;28;96506;-90
2023/09/06 15:28:12;;;;;;;0.47;0.40;;;34.50;50.50;;;32.72;28.27;100598.81;10317104;28;97290;-90
2023/09/06 15:33:15;;;;;;;0.77;0.55;;;35.00;50.20;;;32.63;27.42;100608.13;10278032;28;96749;-91
2023/09/06 15:38:19;;;;;;;0.65;0.40;;;35.10;48.50;;;32.59;27.66;100605.16;10265538;28;96537;-90
2023/09/06 15:43:23;;;;;;;0.75;0.57;;;34.90;48.50;;;32.41;27.11;100603.31;10327667;28;98248;-90
2023/09/06 15:48:27;;;;;;;1.00;0.43;;;34.70;48.20;;;32.20;27.60;100611.06;10286235;28;97136;-90
2023/09/06 15:53:32;;;;;;;1.20;0.55;;;34.40;48.20;;;32.01;28.00;100616.63;10276870;28;96689;-91
2023/09/06 15:58:35;;;;;;;0.85;0.45;;;34.20;48.00;;;31.52;29.13;100620.69;10315509;28;96904;-87
2023/09/06 16:03:39;;;;;;;0.60;0.30;;;33.50;48.10;;;30.82;29.84;100620.47;10309763;28;96965;-92
2023/09/06 16:08:43;;;;;;;0.95;0.60;;;32.50;48.60;;;30.14;31.18;100620.63;10311801;28;97530;-92
2023/09/06 16:13:46;;;;;;;1.25;0.60;;;31.60;49.30;;;29.39;32.29;100616.19;10290490;28;96781;-92
2023/09/06 16:18:51;;;;;;;0.80;0.45;;;30.80;50.00;;;28.76;33.59;100619.47;10293645;28;98335;-91
2023/09/06 16:24:00;;;;;;;0.82;0.47;;;30.10;50.80;;;28.23;34.38;100626.38;10293355;28;98155;-91
2023/09/06 16:29:07;;;;;;;0.75;0.50;;;29.40;51.50;;;27.70;35.59;100640.28;10311479;28;96804;-91
2023/09/06 16:34:14;;;;;;;1.30;0.85;;;28.80;52.30;;;27.14;37.22;100639.28;10303543;28;96770;-90
2023/09/06 16:39:18;;;;;;;0.98;0.50;;;28.40;53.10;;;26.74;38.18;100646.16;10300307;28;97630;-91
2023/09/06 16:44:22;;;;;;;1.38;0.75;;;27.90;53.90;;;26.36;39.84;100650.78;10302110;28;96605;-91
2023/09/06 16:49:26;;;;;;;0.95;0.60;;;27.50;54.60;;;26.03;40.49;100653.78;10324896;27;96617;-91
2023/09/06 16:54:29;;;;;;;1.08;0.60;;;27.10;55.50;;;25.67;41.86;100650.72;10318779;28;96744;-91
2023/09/06 16:59:33;;;;;;;1.17;0.47;;;26.80;56.50;;;25.33;43.31;100656.34;10324173;28;96636;-91
2023/09/06 17:04:36;;;;;;;1.27;0.57;;;26.40;57.50;;;24.91;45.07;100660.66;10275670;28;96646;-90
2023/09/06 17:09:40;;;;;;;1.25;0.90;;;25.90;58.90;;;24.51;46.47;100667.16;10304457;28;96729;-90
2023/09/06 17:14:44;;;;;;;1.63;0.80;;;25.40;59.90;;;24.13;47.76;100671.41;10267267;28;96660;-91
2023/09/06 17:19:47;;;;;;;1.48;0.50;;;25.00;61.00;;;23.68;49.24;100663.28;10266777;28;97406;-90
2023/09/06 17:24:51;;;;;;;0.85;0.50;;;24.60;62.60;;;23.37;50.80;100692.50;10301447;28;96812;-91
2023/09/06 17:29:55;;;;;;;1.85;0.98;;;24.30;63.80;;;23.06;52.23;100685.59;10301889;28;96923;-91
2023/09/06 17:35:00;;;;;;;1.30;0.80;;;23.90;64.70;;;22.75;52.82;100691.38;10316589;28;96950;-90
2023/09/06 17:40:10;;;;;;;2.35;0.77;;;23.60;65.50;;;22.43;54.98;100703.41;10334805;28;98648;-90
2023/09/06 17:45:15;;;;;;;1.90;0.77;;;23.30;67.30;;;22.16;55.38;100704.88;10315107;28;96591;-90
2023/09/06 17:50:18;;;;;;;1.85;0.82;;;23.00;67.90;;;21.97;56.06;100714.06;10301469;28;96894;-90
2023/09/06 17:55:25;;;;;;;1.20;0.70;;;22.80;69.00;;;21.77;56.62;100717.03;10319524;28;96792;-90
2023/09/06 18:00:29;;;;;;;2.13;0.93;;;22.60;69.60;;;21.61;56.82;100723.94;10299961;28;96872;-90
2023/09/06 18:05:33;;;;;;;0.55;0.50;;;22.40;70.00;;;21.42;56.95;100725.00;10311799;28;96699;-90
2023/09/06 18:10:38;;;;;;;0.63;0.55;;;22.30;70.00;;;21.30;57.86;100735.75;10288168;28;96859;-90
2023/09/06 18:15:42;;;;;;;1.02;0.68;;;22.20;71.00;;;21.10;57.88;100736.72;10312197;28;97508;-90
2023/09/06 18:20:46;;;;;;;1.33;0.77;;;22.00;70.70;;;21.00;58.69;100744.53;10298257;28;96984;-90
2023/09/06 18:25:56;;;;;;;1.08;0.65;;;21.90;71.80;;;20.88;58.45;100742.81;10314354;28;97386;-90
2023/09/06 18:31:01;;;;;;;1.20;0.55;;;21.80;71.20;;;20.77;58.63;100749.75;10304981;28;98511;-90
2023/09/06 18:36:08;;;;;;;1.75;0.80;;;21.70;71.40;;;20.62;59.28;100749.25;10313766;28;96786;-90
2023/09/06 18:41:13;;;;;;;1.48;0.73;;;21.60;71.90;;;20.48;59.89;100754.75;10331638;27;97757;-89
2023/09/06 18:46:16;;;;;;;1.55;0.95;;;21.40;72.10;;;20.32;61.25;100760.66;10319810;28;98084;-90
2023/09/06 18:51:20;;;;;;;1.15;0.60;;;21.30;73.50;;;20.08;62.03;100766.81;10299845;28;96730;-89
2023/09/06 18:56:24;;;;;;;1.25;0.60;;;21.10;74.40;;;19.90;62.74;100778.34;10331433;28;98744;-89
2023/09/06 19:01:28;;;;;;;1.70;0.60;;;20.80;74.90;;;19.75;62.14;100771.34;10267798;28;99014;-89
2023/09/06 19:06:34;;;;;;;1.05;0.40;;;20.70;74.30;;;19.65;63.26;100775.53;10300862;28;96850;-89
2023/09/06 19:11:38;;;;;;;2.05;1.35;;;20.60;75.30;;;19.48;63.00;100778.66;10316012;28;96804;-89
2023/09/06 19:16:41;;;;;;;1.15;0.90;;;20.50;75.40;;;19.39;63.92;100781.81;10310100;28;98867;-89
2023/09/06 19:21:45;;;;;;;1.40;0.75;;;20.40;76.30;;;19.25;63.93;100787.25;10296370;28;96726;-89
2023/09/06 19:26:49;;;;;;;1.55;0.55;;;20.30;76.10;;;19.08;65.41;100775.25;10281037;28;96470;-89
2023/09/06 19:31:53;;;;;;;1.65;0.77;;;20.10;76.70;;;19.01;66.12;100787.06;10307983;28;98723;-89
2023/09/06 19:36:57;;;;;;;1.45;0.70;;;20.00;78.40;;;18.87;66.13;100792.47;10299857;28;96550;-89
2023/09/06 19:42:01;;;;;;;1.38;0.60;;;19.90;77.70;;;18.78;67.00;100782.13;10296882;28;96945;-89
2023/09/06 19:47:05;;;;;;;2.03;0.70;;;19.80;78.20;;;18.65;67.14;100801.72;10285223;28;98246;-90
2023/09/06 19:52:09;;;;;;;1.00;0.60;;;19.60;79.30;;;18.46;67.85;100787.22;10307359;28;96963;-90
2023/09/06 19:57:15;;;;;;;0.88;0.40;;;19.50;79.80;;;18.41;67.74;100795.94;10286905;28;97691;-90
2023/09/06 20:02:19;;;;;;;0.63;0.50;;;19.40;80.30;;;18.25;67.57;100779.34;10319452;28;96665;-89
2023/09/06 20:07:22;;;;;;;1.40;0.47;;;19.30;79.40;;;18.15;68.33;100791.31;10296860;28;97260;-89
2023/09/06 20:12:26;;;;;;;0.80;0.60;;;19.20;80.10;;;18.11;68.12;100805.34;10293973;28;96789;-88
2023/09/06 20:17:30;;;;;;;1.05;0.70;;;19.10;80.20;;;18.06;69.37;100814.06;10298762;28;98686;-89
2023/09/06 20:22:34;;;;;;;1.10;0.68;;;19.00;80.60;;;17.97;69.40;100814.41;10289913;28;98669;-88
2023/09/06 20:27:38;;;;;;;0.90;0.50;;;18.90;81.50;;;17.88;69.56;100813.78;10282429;28;97467;-89
2023/09/06 20:32:41;;;;;;;1.13;0.60;;;18.90;81.60;;;17.80;69.83;100814.75;10303511;28;98604;-89
2023/09/06 20:37:45;;;;;;;1.10;0.55;;;18.80;81.70;;;17.72;70.21;100817.63;10303584;28;98438;-90
2023/09/06 20:42:49;;;;;;;0.80;0.52;;;18.70;82.50;;;17.59;70.85;100823.75;10298598;28;98102;-90
2023/09/06 20:47:53;;;;;;;1.25;0.57;;;18.60;83.20;;;17.43;70.99;100820.53;10313184;28;96699;-90
2023/09/06 20:52:57;;;;;;;1.05;0.70;;;18.50;83.20;;;17.39;70.95;100823.63;10315593;28;98392;-91
2023/09/06 20:58:01;;;;;;;1.33;0.68;;;18.40;83.00;;;17.34;71.20;100822.56;10300698;28;96683;-90